sensor_id;sensor_type;location;lat;lon;timestamp;pressure;altitude;pressure_sealevel;temperature;humidity
60244;BME280;46106;51.468;5.814;2022-09-17T00:02:30;100968.63;;;9.99;100.00
60244;BME280;46106;51.468;5.814;2022-09-17T00:04:56;100982.53;;;9.96;100.00
60244;BME280;46106;51.468;5.814;2022-09-17T00:07:27;100972.81;;;9.92;100.00
60244;BME280;46106;51.468;5.814;2022-09-17T00:09:52;100983.38;;;9.97;100.00
60244;BME280;46106;51.468;5.814;2022-09-17T00:12:20;100977.41;;;9.91;100.00
60244;BME280;46106;51.468;5.814;2022-09-17T00:14:57;100978.94;;;9.96;100.00
60244;BME280;46106;51.468;5.814;2022-09-17T00:17:32;100978.41;;;9.90;100.00
60244;BME280;46106;51.468;5.814;2022-09-17T00:20:03;100982.75;;;9.93;100.00
60244;BME280;46106;51.468;5.814;2022-09-17T00:22:38;100979.56;;;9.99;100.00
60244;BME280;46106;51.468;5.814;2022-09-17T00:25:06;100982.31;;;9.99;100.00
60244;BME280;46106;51.468;5.814;2022-09-17T00:27:41;100987.09;;;10.08;100.00
60244;BME280;46106;51.468;5.814;2022-09-17T00:30:08;100993.44;;;10.09;100.00
60244;BME280;46106;51.468;5.814;2022-09-17T00:32:52;100989.84;;;10.08;100.00
60244;BME280;46106;51.468;5.814;2022-09-17T00:35:25;100996.56;;;10.16;100.00
60244;BME280;46106;51.468;5.814;2022-09-17T00:37:51;100992.72;;;10.18;100.00
60244;BME280;46106;51.468;5.814;2022-09-17T00:40:22;100996.25;;;10.20;100.00
60244;BME280;46106;51.468;5.814;2022-09-17T00:42:50;100989.97;;;10.18;100.00
60244;BME280;46106;51.468;5.814;2022-09-17T00:45:27;101000.81;;;10.20;100.00
60244;BME280;46106;51.468;5.814;2022-09-17T00:48:03;101007.81;;;10.24;100.00
60244;BME280;46106;51.468;5.814;2022-09-17T00:50:40;101003.56;;;10.20;100.00
60244;BME280;46106;51.468;5.814;2022-09-17T00:53:18;101008.06;;;10.21;100.00
60244;BME280;46106;51.468;5.814;2022-09-17T00:56:02;100997.09;;;10.21;100.00
60244;BME280;46106;51.468;5.814;2022-09-17T00:58:30;101007.19;;;10.20;100.00
60244;BME280;46106;51.468;5.814;2022-09-17T01:01:06;101006.59;;;10.28;100.00
60244;BME280;46106;51.468;5.814;2022-09-17T01:03:37;101013.63;;;10.32;100.00
60244;BME280;46106;51.468;5.814;2022-09-17T01:07:12;101018.44;;;10.28;100.00
60244;BME280;46106;51.468;5.814;2022-09-17T01:12:27;101008.03;;;10.34;100.00
60244;BME280;46106;51.468;5.814;2022-09-17T01:15:23;101017.09;;;10.34;100.00
60244;BME280;46106;51.468;5.814;2022-09-17T01:26:49;101021.84;;;10.19;100.00
60244;BME280;46106;51.468;5.814;2022-09-17T01:29:40;101028.44;;;10.17;100.00
60244;BME280;46106;51.468;5.814;2022-09-17T01:33:08;101024.91;;;10.15;100.00
60244;BME280;46106;51.468;5.814;2022-09-17T01:36:48;101030.88;;;10.08;100.00
60244;BME280;46106;51.468;5.814;2022-09-17T01:38:53;101026.16;;;10.10;100.00
60244;BME280;46106;51.468;5.814;2022-09-17T01:41:48;101030.72;;;10.10;100.00
60244;BME280;46106;51.468;5.814;2022-09-17T01:47:17;101035.75;;;10.16;100.00
60244;BME280;46106;51.468;5.814;2022-09-17T01:50:08;101041.09;;;10.18;100.00
60244;BME280;46106;51.468;5.814;2022-09-17T01:52:38;101040.34;;;10.16;100.00
60244;BME280;46106;51.468;5.814;2022-09-17T01:55:14;101036.50;;;10.18;100.00
60244;BME280;46106;51.468;5.814;2022-09-17T01:57:50;101038.47;;;10.16;100.00
60244;BME280;46106;51.468;5.814;2022-09-17T02:00:25;101032.91;;;10.18;100.00
60244;BME280;46106;51.468;5.814;2022-09-17T02:03:02;101040.25;;;10.17;100.00
60244;BME280;46106;51.468;5.814;2022-09-17T02:06:01;101044.19;;;10.13;100.00
60244;BME280;46106;51.468;5.814;2022-09-17T02:08:45;101041.25;;;10.03;100.00
60244;BME280;46106;51.468;5.814;2022-09-17T02:11:14;101051.75;;;10.09;100.00
60244;BME280;46106;51.468;5.814;2022-09-17T02:13:57;101050.88;;;10.09;100.00
60244;BME280;46106;51.468;5.814;2022-09-17T02:16:28;101048.16;;;10.09;100.00
60244;BME280;46106;51.468;5.814;2022-09-17T02:18:59;101040.06;;;10.07;100.00
60244;BME280;46106;51.468;5.814;2022-09-17T02:21:42;101052.09;;;10.05;100.00
60244;BME280;46106;51.468;5.814;2022-09-17T02:24:26;101047.84;;;10.01;100.00
60244;BME280;46106;51.468;5.814;2022-09-17T02:27:03;101048.94;;;9.98;100.00
60244;BME280;46106;51.468;5.814;2022-09-17T02:29:37;101051.56;;;10.00;100.00
60244;BME280;46106;51.468;5.814;2022-09-17T02:32:06;101055.19;;;10.00;100.00
60244;BME280;46106;51.468;5.814;2022-09-17T02:34:34;101057.91;;;10.00;100.00
60244;BME280;46106;51.468;5.814;2022-09-17T02:37:03;101058.38;;;9.94;100.00
60244;BME280;46106;51.468;5.814;2022-09-17T02:39:33;101058.16;;;9.97;100.00
60244;BME280;46106;51.468;5.814;2022-09-17T02:42:23;101065.97;;;10.02;100.00
60244;BME280;46106;51.468;5.814;2022-09-17T02:45:06;101073.22;;;10.03;100.00
60244;BME280;46106;51.468;5.814;2022-09-17T02:50:46;101070.47;;;10.03;100.00
60244;BME280;46106;51.468;5.814;2022-09-17T02:53:38;101067.31;;;10.09;100.00
60244;BME280;46106;51.468;5.814;2022-09-17T02:58:55;101067.06;;;10.12;100.00
60244;BME280;46106;51.468;5.814;2022-09-17T03:01:31;101062.81;;;10.08;100.00
60244;BME280;46106;51.468;5.814;2022-09-17T03:04:01;101059.53;;;10.03;100.00
60244;BME280;46106;51.468;5.814;2022-09-17T03:06:29;101058.91;;;9.99;100.00
60244;BME280;46106;51.468;5.814;2022-09-17T03:08:55;101057.25;;;9.97;100.00
60244;BME280;46106;51.468;5.814;2022-09-17T03:11:22;101062.50;;;10.00;100.00
60244;BME280;46106;51.468;5.814;2022-09-17T03:13:55;101062.59;;;9.98;100.00
60244;BME280;46106;51.468;5.814;2022-09-17T03:16:23;101065.34;;;9.98;100.00
60244;BME280;46106;51.468;5.814;2022-09-17T03:19:04;101057.03;;;10.00;100.00
60244;BME280;46106;51.468;5.814;2022-09-17T03:21:36;101062.69;;;10.09;100.00
60244;BME280;46106;51.468;5.814;2022-09-17T03:24:02;101060.97;;;10.08;100.00
60244;BME280;46106;51.468;5.814;2022-09-17T03:26:29;101057.22;;;10.09;100.00
60244;BME280;46106;51.468;5.814;2022-09-17T03:28:56;101052.06;;;10.18;100.00
60244;BME280;46106;51.468;5.814;2022-09-17T03:31:26;101053.06;;;10.17;100.00
60244;BME280;46106;51.468;5.814;2022-09-17T03:33:56;101054.78;;;10.18;100.00
60244;BME280;46106;51.468;5.814;2022-09-17T03:36:24;101050.44;;;10.15;100.00
60244;BME280;46106;51.468;5.814;2022-09-17T03:39:00;101053.81;;;10.19;100.00
60244;BME280;46106;51.468;5.814;2022-09-17T03:41:26;101061.28;;;10.17;100.00
60244;BME280;46106;51.468;5.814;2022-09-17T03:43:53;101058.75;;;10.14;100.00
60244;BME280;46106;51.468;5.814;2022-09-17T03:46:20;101064.56;;;10.09;100.00
60244;BME280;46106;51.468;5.814;2022-09-17T03:48:46;101059.88;;;9.98;100.00
60244;BME280;46106;51.468;5.814;2022-09-17T03:51:13;101065.44;;;9.97;100.00
60244;BME280;46106;51.468;5.814;2022-09-17T03:53:45;101074.78;;;9.94;100.00
60244;BME280;46106;51.468;5.814;2022-09-17T03:56:20;101079.50;;;9.92;100.00
60244;BME280;46106;51.468;5.814;2022-09-17T03:58:59;101075.84;;;9.91;100.00
60244;BME280;46106;51.468;5.814;2022-09-17T04:01:34;101070.16;;;9.94;100.00
60244;BME280;46106;51.468;5.814;2022-09-17T04:04:06;101055.53;;;9.96;100.00
60244;BME280;46106;51.468;5.814;2022-09-17T04:06:33;101058.66;;;10.02;100.00
60244;BME280;46106;51.468;5.814;2022-09-17T04:09:00;101059.44;;;10.04;100.00
60244;BME280;46106;51.468;5.814;2022-09-17T04:11:48;101068.91;;;10.11;100.00
60244;BME280;46106;51.468;5.814;2022-09-17T04:14:19;101069.94;;;10.10;100.00
60244;BME280;46106;51.468;5.814;2022-09-17T04:16:48;101072.44;;;10.14;100.00
60244;BME280;46106;51.468;5.814;2022-09-17T04:19:20;101080.28;;;10.18;100.00
60244;BME280;46106;51.468;5.814;2022-09-17T04:21:51;101083.16;;;10.17;100.00
60244;BME280;46106;51.468;5.814;2022-09-17T04:24:23;101102.84;;;10.22;100.00
60244;BME280;46106;51.468;5.814;2022-09-17T04:26:50;101095.59;;;10.21;100.00
60244;BME280;46106;51.468;5.814;2022-09-17T04:29:17;101093.50;;;10.24;100.00
60244;BME280;46106;51.468;5.814;2022-09-17T04:31:47;101094.75;;;10.20;100.00
60244;BME280;46106;51.468;5.814;2022-09-17T04:34:30;101073.75;;;10.08;100.00
60244;BME280;46106;51.468;5.814;2022-09-17T04:36:56;101070.03;;;10.09;100.00
60244;BME280;46106;51.468;5.814;2022-09-17T04:39:22;101067.72;;;10.16;100.00
60244;BME280;46106;51.468;5.814;2022-09-17T04:41:50;101058.34;;;10.07;100.00
60244;BME280;46106;51.468;5.814;2022-09-17T04:44:15;101070.38;;;10.04;100.00
60244;BME280;46106;51.468;5.814;2022-09-17T04:46:41;101075.84;;;9.91;100.00
60244;BME280;46106;51.468;5.814;2022-09-17T04:49:12;101085.19;;;9.89;100.00
60244;BME280;46106;51.468;5.814;2022-09-17T04:51:42;101083.97;;;9.80;100.00
60244;BME280;46106;51.468;5.814;2022-09-17T04:54:08;101095.13;;;9.77;100.00
60244;BME280;46106;51.468;5.814;2022-09-17T04:56:35;101090.88;;;9.73;100.00
60244;BME280;46106;51.468;5.814;2022-09-17T04:59:05;101088.47;;;9.68;100.00
60244;BME280;46106;51.468;5.814;2022-09-17T05:01:33;101096.78;;;9.67;100.00
60244;BME280;46106;51.468;5.814;2022-09-17T05:04:01;101096.88;;;9.65;100.00
60244;BME280;46106;51.468;5.814;2022-09-17T05:06:33;101094.25;;;9.64;100.00
60244;BME280;46106;51.468;5.814;2022-09-17T05:09:02;101104.53;;;9.60;100.00
60244;BME280;46106;51.468;5.814;2022-09-17T05:11:36;101099.28;;;9.57;100.00
60244;BME280;46106;51.468;5.814;2022-09-17T05:14:02;101103.25;;;9.53;100.00
60244;BME280;46106;51.468;5.814;2022-09-17T05:16:32;101095.69;;;9.44;100.00
60244;BME280;46106;51.468;5.814;2022-09-17T05:19:06;101102.34;;;9.52;100.00
60244;BME280;46106;51.468;5.814;2022-09-17T05:21:33;101106.06;;;9.51;100.00
60244;BME280;46106;51.468;5.814;2022-09-17T05:24:01;101101.03;;;9.45;100.00
60244;BME280;46106;51.468;5.814;2022-09-17T05:26:34;101113.16;;;9.54;100.00
60244;BME280;46106;51.468;5.814;2022-09-17T05:29:13;101117.78;;;9.53;100.00
60244;BME280;46106;51.468;5.814;2022-09-17T05:31:51;101120.63;;;9.52;100.00
60244;BME280;46106;51.468;5.814;2022-09-17T05:34:26;101110.53;;;9.52;100.00
60244;BME280;46106;51.468;5.814;2022-09-17T05:36:53;101122.38;;;9.53;100.00
60244;BME280;46106;51.468;5.814;2022-09-17T05:39:36;101120.28;;;9.56;100.00
60244;BME280;46106;51.468;5.814;2022-09-17T05:42:03;101119.53;;;9.54;100.00
60244;BME280;46106;51.468;5.814;2022-09-17T05:44:29;101118.84;;;9.51;100.00
60244;BME280;46106;51.468;5.814;2022-09-17T05:46:54;101126.41;;;9.60;100.00
60244;BME280;46106;51.468;5.814;2022-09-17T05:49:20;101137.44;;;9.59;100.00
60244;BME280;46106;51.468;5.814;2022-09-17T05:51:46;101130.34;;;9.56;100.00
60244;BME280;46106;51.468;5.814;2022-09-17T05:54:16;101119.44;;;9.56;100.00
60244;BME280;46106;51.468;5.814;2022-09-17T05:56:52;101132.44;;;9.65;100.00
60244;BME280;46106;51.468;5.814;2022-09-17T05:59:21;101124.00;;;9.68;100.00
60244;BME280;46106;51.468;5.814;2022-09-17T06:01:49;101130.22;;;9.70;100.00
60244;BME280;46106;51.468;5.814;2022-09-17T06:04:25;101121.91;;;9.72;100.00
60244;BME280;46106;51.468;5.814;2022-09-17T06:06:55;101135.16;;;9.91;100.00
60244;BME280;46106;51.468;5.814;2022-09-17T06:09:24;101136.94;;;9.92;100.00
60244;BME280;46106;51.468;5.814;2022-09-17T06:11:50;101130.03;;;9.86;100.00
60244;BME280;46106;51.468;5.814;2022-09-17T06:14:17;101140.31;;;10.08;100.00
60244;BME280;46106;51.468;5.814;2022-09-17T06:16:46;101148.34;;;10.23;100.00
60244;BME280;46106;51.468;5.814;2022-09-17T06:19:15;101146.16;;;10.28;100.00
60244;BME280;46106;51.468;5.814;2022-09-17T06:21:41;101146.50;;;10.36;100.00
60244;BME280;46106;51.468;5.814;2022-09-17T06:24:09;101152.06;;;10.47;100.00
60244;BME280;46106;51.468;5.814;2022-09-17T06:26:51;101159.81;;;10.54;100.00
60244;BME280;46106;51.468;5.814;2022-09-17T06:29:17;101159.38;;;10.60;100.00
60244;BME280;46106;51.468;5.814;2022-09-17T06:31:52;101159.72;;;10.55;100.00
60244;BME280;46106;51.468;5.814;2022-09-17T06:34:28;101164.63;;;10.63;100.00
60244;BME280;46106;51.468;5.814;2022-09-17T06:37:03;101163.72;;;10.62;100.00
60244;BME280;46106;51.468;5.814;2022-09-17T06:39:33;101166.22;;;10.78;100.00
60244;BME280;46106;51.468;5.814;2022-09-17T06:42:01;101162.41;;;10.68;100.00
60244;BME280;46106;51.468;5.814;2022-09-17T06:44:27;101168.00;;;10.66;100.00
60244;BME280;46106;51.468;5.814;2022-09-17T06:46:54;101167.78;;;10.70;100.00
60244;BME280;46106;51.468;5.814;2022-09-17T06:49:20;101155.25;;;10.78;100.00
60244;BME280;46106;51.468;5.814;2022-09-17T06:51:53;101156.72;;;10.71;100.00
60244;BME280;46106;51.468;5.814;2022-09-17T06:54:29;101151.72;;;10.89;100.00
60244;BME280;46106;51.468;5.814;2022-09-17T06:57:01;101146.97;;;10.91;100.00
60244;BME280;46106;51.468;5.814;2022-09-17T06:59:42;101149.38;;;10.96;100.00
60244;BME280;46106;51.468;5.814;2022-09-17T07:02:15;101162.50;;;11.03;100.00
60244;BME280;46106;51.468;5.814;2022-09-17T07:04:44;101154.69;;;11.10;100.00
60244;BME280;46106;51.468;5.814;2022-09-17T07:07:23;101150.69;;;11.38;100.00
60244;BME280;46106;51.468;5.814;2022-09-17T07:09:52;101154.59;;;11.58;100.00
60244;BME280;46106;51.468;5.814;2022-09-17T07:12:26;101160.19;;;11.92;100.00
60244;BME280;46106;51.468;5.814;2022-09-17T07:14:58;101161.66;;;11.97;100.00
60244;BME280;46106;51.468;5.814;2022-09-17T07:17:24;101163.94;;;11.67;100.00
60244;BME280;46106;51.468;5.814;2022-09-17T07:19:59;101161.91;;;11.47;100.00
60244;BME280;46106;51.468;5.814;2022-09-17T07:22:25;101166.03;;;11.52;100.00
60244;BME280;46106;51.468;5.814;2022-09-17T07:24:57;101166.53;;;11.57;100.00
60244;BME280;46106;51.468;5.814;2022-09-17T07:27:26;101163.94;;;11.67;100.00
60244;BME280;46106;51.468;5.814;2022-09-17T07:29:53;101164.34;;;11.74;100.00
60244;BME280;46106;51.468;5.814;2022-09-17T07:32:21;101165.56;;;11.94;100.00
60244;BME280;46106;51.468;5.814;2022-09-17T07:34:48;101162.63;;;11.73;100.00
60244;BME280;46106;51.468;5.814;2022-09-17T07:37:19;101163.56;;;11.96;100.00
60244;BME280;46106;51.468;5.814;2022-09-17T07:39:45;101165.81;;;12.13;100.00
60244;BME280;46106;51.468;5.814;2022-09-17T07:42:17;101165.69;;;12.15;100.00
60244;BME280;46106;51.468;5.814;2022-09-17T07:44:46;101156.31;;;12.29;100.00
60244;BME280;46106;51.468;5.814;2022-09-17T07:47:21;101159.03;;;12.74;100.00
60244;BME280;46106;51.468;5.814;2022-09-17T07:50:02;101168.25;;;12.73;100.00
60244;BME280;46106;51.468;5.814;2022-09-17T07:52:35;101167.19;;;12.97;100.00
60244;BME280;46106;51.468;5.814;2022-09-17T07:55:00;101175.84;;;13.24;100.00
60244;BME280;46106;51.468;5.814;2022-09-17T07:57:30;101172.81;;;13.39;100.00
60244;BME280;46106;51.468;5.814;2022-09-17T07:59:55;101175.66;;;13.49;100.00
60244;BME280;46106;51.468;5.814;2022-09-17T08:02:24;101176.66;;;13.69;100.00
60244;BME280;46106;51.468;5.814;2022-09-17T08:04:50;101183.66;;;14.15;100.00
60244;BME280;46106;51.468;5.814;2022-09-17T08:07:23;101180.91;;;13.52;100.00
60244;BME280;46106;51.468;5.814;2022-09-17T08:09:50;101180.19;;;13.06;100.00
60244;BME280;46106;51.468;5.814;2022-09-17T08:12:18;101177.59;;;12.93;100.00
60244;BME280;46106;51.468;5.814;2022-09-17T08:14:49;101176.78;;;13.14;100.00
60244;BME280;46106;51.468;5.814;2022-09-17T08:17:17;101179.91;;;13.09;100.00
60244;BME280;46106;51.468;5.814;2022-09-17T08:19:45;101175.34;;;12.87;100.00
60244;BME280;46106;51.468;5.814;2022-09-17T08:22:13;101188.66;;;13.79;100.00
60244;BME280;46106;51.468;5.814;2022-09-17T08:24:40;101183.66;;;14.25;100.00
60244;BME280;46106;51.468;5.814;2022-09-17T08:27:08;101190.03;;;14.46;100.00
60244;BME280;46106;51.468;5.814;2022-09-17T08:29:34;101181.13;;;14.74;100.00
60244;BME280;46106;51.468;5.814;2022-09-17T08:32:06;101196.53;;;14.45;100.00
60244;BME280;46106;51.468;5.814;2022-09-17T08:34:39;101193.59;;;13.85;100.00
60244;BME280;46106;51.468;5.814;2022-09-17T08:37:07;101205.44;;;13.44;100.00
60244;BME280;46106;51.468;5.814;2022-09-17T08:39:33;101205.66;;;13.08;100.00
60244;BME280;46106;51.468;5.814;2022-09-17T08:42:11;101196.84;;;12.71;100.00
60244;BME280;46106;51.468;5.814;2022-09-17T08:44:46;101192.06;;;12.95;100.00
60244;BME280;46106;51.468;5.814;2022-09-17T08:47:33;101191.47;;;12.80;100.00
60244;BME280;46106;51.468;5.814;2022-09-17T08:50:04;101188.69;;;13.47;100.00
60244;BME280;46106;51.468;5.814;2022-09-17T08:53:06;101191.97;;;14.34;100.00
60244;BME280;46106;51.468;5.814;2022-09-17T08:55:45;101190.88;;;14.78;100.00
60244;BME280;46106;51.468;5.814;2022-09-17T09:06:26;101185.31;;;15.87;100.00
60244;BME280;46106;51.468;5.814;2022-09-17T09:09:05;101184.59;;;15.65;100.00
60244;BME280;46106;51.468;5.814;2022-09-17T09:11:35;101189.69;;;16.37;100.00
60244;BME280;46106;51.468;5.814;2022-09-17T09:16:44;101182.50;;;16.06;100.00
60244;BME280;46106;51.468;5.814;2022-09-17T09:24:39;101192.56;;;15.39;100.00
60244;BME280;46106;51.468;5.814;2022-09-17T09:27:21;101186.63;;;15.83;100.00
60244;BME280;46106;51.468;5.814;2022-09-17T09:30:07;101187.34;;;15.94;100.00
60244;BME280;46106;51.468;5.814;2022-09-17T09:35:40;101176.88;;;15.88;100.00
60244;BME280;46106;51.468;5.814;2022-09-17T09:40:51;101185.91;;;15.22;100.00
60244;BME280;46106;51.468;5.814;2022-09-17T09:43:38;101193.53;;;14.89;100.00
60244;BME280;46106;51.468;5.814;2022-09-17T09:46:23;101183.44;;;14.38;100.00
60244;BME280;46106;51.468;5.814;2022-09-17T09:48:59;101187.19;;;14.27;100.00
60244;BME280;46106;51.468;5.814;2022-09-17T09:57:16;101185.16;;;15.00;100.00
60244;BME280;46106;51.468;5.814;2022-09-17T10:00:20;101184.69;;;14.55;100.00
60244;BME280;46106;51.468;5.814;2022-09-17T10:02:49;101183.91;;;14.12;100.00
60244;BME280;46106;51.468;5.814;2022-09-17T10:05:23;101187.22;;;14.37;100.00
60244;BME280;46106;51.468;5.814;2022-09-17T10:07:54;101185.28;;;14.58;100.00
60244;BME280;46106;51.468;5.814;2022-09-17T10:10:20;101191.53;;;15.01;100.00
60244;BME280;46106;51.468;5.814;2022-09-17T10:13:06;101186.53;;;14.85;100.00
60244;BME280;46106;51.468;5.814;2022-09-17T10:15:36;101188.81;;;14.70;100.00
60244;BME280;46106;51.468;5.814;2022-09-17T10:18:15;101176.69;;;15.02;100.00
60244;BME280;46106;51.468;5.814;2022-09-17T10:20:51;101178.91;;;15.57;100.00
60244;BME280;46106;51.468;5.814;2022-09-17T10:23:17;101185.69;;;16.11;100.00
60244;BME280;46106;51.468;5.814;2022-09-17T10:25:44;101187.69;;;16.29;100.00
60244;BME280;46106;51.468;5.814;2022-09-17T10:28:29;101193.47;;;15.78;100.00
60244;BME280;46106;51.468;5.814;2022-09-17T10:31:03;101195.63;;;15.46;100.00
60244;BME280;46106;51.468;5.814;2022-09-17T10:33:55;101183.88;;;15.53;100.00
60244;BME280;46106;51.468;5.814;2022-09-17T10:36:41;101179.34;;;15.91;100.00
60244;BME280;46106;51.468;5.814;2022-09-17T10:44:37;101161.34;;;16.62;100.00
60244;BME280;46106;51.468;5.814;2022-09-17T10:47:12;101157.44;;;16.83;100.00
60244;BME280;46106;51.468;5.814;2022-09-17T10:50:06;101173.25;;;16.72;100.00
60244;BME280;46106;51.468;5.814;2022-09-17T10:52:53;101170.38;;;16.64;100.00
60244;BME280;46106;51.468;5.814;2022-09-17T10:55:30;101173.91;;;16.57;100.00
60244;BME280;46106;51.468;5.814;2022-09-17T11:07:03;101170.56;;;16.53;100.00
60244;BME280;46106;51.468;5.814;2022-09-17T11:15:35;101168.22;;;16.21;100.00
60244;BME280;46106;51.468;5.814;2022-09-17T11:18:44;101148.34;;;16.45;100.00
60244;BME280;46106;51.468;5.814;2022-09-17T11:38:16;101141.22;;;16.05;100.00
60244;BME280;46106;51.468;5.814;2022-09-17T11:43:39;101147.00;;;16.49;100.00
60244;BME280;46106;51.468;5.814;2022-09-17T11:46:18;101138.50;;;16.32;100.00
60244;BME280;46106;51.468;5.814;2022-09-17T11:48:53;101151.81;;;16.09;100.00
60244;BME280;46106;51.468;5.814;2022-09-17T11:51:44;101154.06;;;16.33;100.00
60244;BME280;46106;51.468;5.814;2022-09-17T11:54:46;101149.06;;;16.47;100.00
60244;BME280;46106;51.468;5.814;2022-09-17T11:57:15;101146.94;;;15.84;100.00
60244;BME280;46106;51.468;5.814;2022-09-17T12:02:37;101147.53;;;15.87;100.00
60244;BME280;46106;51.468;5.814;2022-09-17T12:05:15;101144.53;;;16.08;100.00
60244;BME280;46106;51.468;5.814;2022-09-17T12:08:38;101141.66;;;16.00;100.00
60244;BME280;46106;51.468;5.814;2022-09-17T12:11:22;101138.97;;;16.56;100.00
60244;BME280;46106;51.468;5.814;2022-09-17T12:14:20;101141.69;;;16.93;100.00
60244;BME280;46106;51.468;5.814;2022-09-17T12:16:54;101128.19;;;16.25;100.00
60244;BME280;46106;51.468;5.814;2022-09-17T12:19:39;101130.50;;;16.29;100.00
60244;BME280;46106;51.468;5.814;2022-09-17T12:22:24;101116.66;;;16.02;100.00
60244;BME280;46106;51.468;5.814;2022-09-17T12:24:57;101117.91;;;16.54;100.00
60244;BME280;46106;51.468;5.814;2022-09-17T12:28:10;101111.06;;;16.77;100.00
60244;BME280;46106;51.468;5.814;2022-09-17T12:30:49;101124.06;;;16.94;100.00
60244;BME280;46106;51.468;5.814;2022-09-17T12:33:48;101120.22;;;16.77;100.00
60244;BME280;46106;51.468;5.814;2022-09-17T12:39:18;101106.31;;;16.13;100.00
60244;BME280;46106;51.468;5.814;2022-09-17T12:42:00;101102.13;;;15.99;100.00
60244;BME280;46106;51.468;5.814;2022-09-17T12:59:06;101123.72;;;14.38;100.00
60244;BME280;46106;51.468;5.814;2022-09-17T13:13:36;101107.03;;;15.39;100.00
60244;BME280;46106;51.468;5.814;2022-09-17T13:19:02;101093.50;;;15.55;100.00
60244;BME280;46106;51.468;5.814;2022-09-17T13:22:05;101082.16;;;15.78;100.00
60244;BME280;46106;51.468;5.814;2022-09-17T13:24:35;101074.94;;;16.05;100.00
60244;BME280;46106;51.468;5.814;2022-09-17T13:27:19;101092.03;;;16.18;100.00
60244;BME280;46106;51.468;5.814;2022-09-17T13:37:44;101085.28;;;16.03;100.00
60244;BME280;46106;51.468;5.814;2022-09-17T13:40:38;101090.00;;;16.20;99.10
60244;BME280;46106;51.468;5.814;2022-09-17T13:43:06;101096.00;;;16.06;92.85
60244;BME280;46106;51.468;5.814;2022-09-17T13:48:27;101097.59;;;16.64;90.47
60244;BME280;46106;51.468;5.814;2022-09-17T13:54:04;101086.97;;;16.87;84.81
60244;BME280;46106;51.468;5.814;2022-09-17T13:56:46;101086.81;;;17.24;83.19
60244;BME280;46106;51.468;5.814;2022-09-17T13:59:23;101091.06;;;16.83;81.85
60244;BME280;46106;51.468;5.814;2022-09-17T14:05:28;101109.13;;;16.04;94.94
60244;BME280;46106;51.468;5.814;2022-09-17T14:08:12;101109.31;;;15.83;100.00
60244;BME280;46106;51.468;5.814;2022-09-17T14:10:47;101116.84;;;15.71;100.00
60244;BME280;46106;51.468;5.814;2022-09-17T14:22:00;101111.31;;;15.90;95.16
60244;BME280;46106;51.468;5.814;2022-09-17T14:24:44;101105.66;;;15.92;98.41
60244;BME280;46106;51.468;5.814;2022-09-17T14:27:57;101113.06;;;15.91;93.83
60244;BME280;46106;51.468;5.814;2022-09-17T14:30:32;101108.00;;;15.77;95.13
60244;BME280;46106;51.468;5.814;2022-09-17T14:33:14;101111.03;;;15.84;97.59
60244;BME280;46106;51.468;5.814;2022-09-17T14:35:59;101109.91;;;15.76;89.98
60244;BME280;46106;51.468;5.814;2022-09-17T14:38:43;101115.13;;;15.89;86.04
60244;BME280;46106;51.468;5.814;2022-09-17T14:46:30;101118.63;;;15.52;93.74
60244;BME280;46106;51.468;5.814;2022-09-17T14:49:19;101111.06;;;15.54;95.44
60244;BME280;46106;51.468;5.814;2022-09-17T14:51:51;101122.25;;;15.62;96.38
60244;BME280;46106;51.468;5.814;2022-09-17T14:54:24;101120.81;;;15.78;96.59
60244;BME280;46106;51.468;5.814;2022-09-17T14:59:52;101113.59;;;16.05;100.00
60244;BME280;46106;51.468;5.814;2022-09-17T15:07:41;101104.06;;;15.89;97.63
60244;BME280;46106;51.468;5.814;2022-09-17T15:10:21;101102.09;;;16.09;97.09
60244;BME280;46106;51.468;5.814;2022-09-17T15:12:51;101102.00;;;16.01;94.89
60244;BME280;46106;51.468;5.814;2022-09-17T15:15:21;101099.00;;;16.22;97.11
60244;BME280;46106;51.468;5.814;2022-09-17T15:17:50;101101.06;;;16.20;96.52
60244;BME280;46106;51.468;5.814;2022-09-17T15:20:28;101090.25;;;16.27;95.98
60244;BME280;46106;51.468;5.814;2022-09-17T15:23:25;101112.16;;;16.10;90.77
60244;BME280;46106;51.468;5.814;2022-09-17T15:25:55;101103.16;;;15.98;92.41
60244;BME280;46106;51.468;5.814;2022-09-17T15:28:28;101108.38;;;16.02;88.11
60244;BME280;46106;51.468;5.814;2022-09-17T15:31:05;101107.25;;;15.94;88.14
60244;BME280;46106;51.468;5.814;2022-09-17T15:33:39;101109.69;;;16.07;83.91
60244;BME280;46106;51.468;5.814;2022-09-17T15:36:22;101121.28;;;16.11;83.83
60244;BME280;46106;51.468;5.814;2022-09-17T15:38:50;101109.72;;;15.97;82.26
60244;BME280;46106;51.468;5.814;2022-09-17T15:41:33;101120.88;;;16.06;86.51
60244;BME280;46106;51.468;5.814;2022-09-17T15:44:22;101116.03;;;16.17;91.38
60244;BME280;46106;51.468;5.814;2022-09-17T15:46:52;101117.41;;;16.04;85.73
60244;BME280;46106;51.468;5.814;2022-09-17T15:49:33;101120.31;;;16.02;79.08
60244;BME280;46106;51.468;5.814;2022-09-17T15:58:37;101123.56;;;15.58;99.34
60244;BME280;46106;51.468;5.814;2022-09-17T16:08:55;101125.06;;;15.33;100.00
60244;BME280;46106;51.468;5.814;2022-09-17T16:11:26;101143.06;;;15.28;100.00
60244;BME280;46106;51.468;5.814;2022-09-17T16:13:53;101143.91;;;14.99;100.00
60244;BME280;46106;51.468;5.814;2022-09-17T16:16:34;101145.38;;;15.03;100.00
60244;BME280;46106;51.468;5.814;2022-09-17T16:19:08;101150.59;;;15.06;100.00
60244;BME280;46106;51.468;5.814;2022-09-17T16:21:42;101138.97;;;14.93;100.00